TimeCDT,TemperatureF,Dew PointF,Humidity,Sea Level PressureIn,VisibilityMPH,Wind Direction,Wind SpeedMPH,Gust SpeedMPH,PrecipitationIn,Events,Conditions,WindDirDegrees,DateUTC
12:52 AM,81.0,64.0,56,29.92,10.0,SW,12.7,19.6,N/A,,Clear,220,2013-09-11 05:52:00
1:52 AM,80.1,63.0,56,29.92,10.0,SSW,12.7,-,N/A,,Clear,210,2013-09-11 06:52:00
2:52 AM,78.1,64.0,62,29.98,10.0,SW,8.1,-,N/A,,Scattered Clouds,230,2013-09-11 07:52:00
3:52 AM,78.1,64.0,62,29.93,10.0,SW,6.9,-,N/A,,Clear,220,2013-09-11 08:52:00
4:52 AM,77.0,64.0,64,29.95,10.0,Variable,5.8,-,N/A,,Clear,0,2013-09-11 09:52:00
5:52 AM,73.9,64.9,73,29.96,10.0,West,3.5,-,N/A,,Clear,280,2013-09-11 10:52:00
6:52 AM,71.1,64.9,81,29.99,8.0,Calm,Calm,-,N/A,,Clear,0,2013-09-11 11:52:00
7:52 AM,73.0,66.9,81,30.04,8.0,NW,6.9,-,N/A,,Mostly Cloudy,320,2013-09-11 12:52:00
8:52 AM,77.0,66.0,69,30.01,10.0,NE,5.8,-,N/A,,Clear,40,2013-09-11 13:52:00
9:52 AM,78.1,64.9,64,30.00,10.0,East,5.8,-,N/A,,Clear,90,2013-09-11 14:52:00
10:52 AM,79.0,64.9,62,29.99,10.0,Variable,6.9,-,N/A,,Clear,0,2013-09-11 15:52:00
11:29 AM,78.8,66.2,65,30.03,10.0,SSE,6.9,-,N/A,,Clear,150,2013-09-11 16:29:00
11:52 AM,81.0,64.9,58,30.00,10.0,Calm,Calm,-,N/A,,Clear,0,2013-09-11 16:52:00
12:52 PM,79.0,64.9,62,29.99,10.0,ENE,4.6,-,N/A,,Mostly Cloudy,70,2013-09-11 17:52:00
1:52 PM,77.0,66.0,69,30.01,8.0,WNW,5.8,-,0.00,Rain,Light Rain,300,2013-09-11 18:52:00
2:52 PM,73.9,69.1,85,30.00,10.0,Calm,Calm,-,0.03,Rain,Light Rain,0,2013-09-11 19:52:00
3:52 PM,75.0,70.0,84,29.96,10.0,Calm,Calm,-,0.01,,Overcast,0,2013-09-11 20:52:00
4:52 PM,79.0,69.1,72,29.96,10.0,Variable,4.6,-,N/A,,Partly Cloudy,0,2013-09-11 21:52:00
5:52 PM,78.1,66.9,68,29.96,10.0,West,4.6,-,N/A,,Clear,280,2013-09-11 22:52:00
6:52 PM,75.9,68.0,76,29.96,10.0,Calm,Calm,-,N/A,,Clear,0,2013-09-11 23:52:00
7:52 PM,73.9,68.0,82,29.96,10.0,SSW,4.6,-,N/A,,Mostly Cloudy,210,2013-09-12 00:52:00
8:52 PM,73.9,68.0,82,29.96,10.0,SW,3.5,-,N/A,,Mostly Cloudy,220,2013-09-12 01:52:00
9:52 PM,72.0,68.0,87,29.95,10.0,Calm,Calm,-,N/A,,Clear,0,2013-09-12 02:52:00
10:52 PM,71.1,66.9,87,29.95,10.0,Calm,Calm,-,N/A,,Clear,0,2013-09-12 03:52:00
11:52 PM,69.1,66.0,90,29.94,10.0,Calm,Calm,-,N/A,,Clear,0,2013-09-12 04:52:00